• Join FlightAware (Why Join?)
  • Login
  • US Flag 
04:25PM EDT


 

Airport Tracker/Info


-or-


 

Live Flight TrackerFlight Track Log ✈ AWE365 ✈ 12-May-2013 ✈ MMPR / PVR - KPHX

Flight Track Log - Related Links

Times and Time Zones

All times are in EDT time to prevent confusion due to time zone crossing. See the AWE365 flight status page for this flight to view local times or setup timezone preferences in your user account.

Time Position Orientation Groundspeed Altitude Reporting Facility
EDT Latitude Longitude Course Direction KTS MPH feet Rate Location/Type
07:00PM 21.0992 -105.4581 336° Northwest  Level FlightAware Approximate
07:01PM 21.2040 -105.5093 336° Northwest  Level FlightAware Approximate
07:02PM 21.3087 -105.5605 335° Northwest  Level FlightAware Approximate
07:03PM 21.4134 -105.6118 335° Northwest  Level FlightAware Approximate
07:04PM 21.5181 -105.6632 335° Northwest  Level FlightAware Approximate
07:05PM 21.6228 -105.7147 335° Northwest  Level FlightAware Approximate
07:06PM 21.7274 -105.7662 335° Northwest  Level FlightAware Approximate
07:07PM 21.8321 -105.8178 335° Northwest  Level FlightAware Approximate
07:08PM 21.9367 -105.8695 335° Northwest  Level FlightAware Approximate
07:09PM 22.0413 -105.9212 335° Northwest  Level FlightAware Approximate
07:10PM 22.1460 -105.9731 335° Northwest  Level FlightAware Approximate
07:11PM 22.2384 -106.0176 336° Northwest  Level FlightAware Approximate
07:12PM 22.3437 -106.0679 336° Northwest  Level FlightAware Approximate
07:13PM 22.4490 -106.1182 336° Northwest  Level FlightAware Approximate
07:14PM 22.5542 -106.1688 335° Northwest  Level FlightAware Approximate
07:15PM 22.6587 -106.2210 335° Northwest  Level FlightAware Approximate
07:16PM 22.7632 -106.2733 335° Northwest  Level FlightAware Approximate
07:17PM 22.8677 -106.3258 335° Northwest  Level FlightAware Approximate
07:18PM 22.9721 -106.3782 335° Northwest  Level FlightAware Approximate
07:19PM 23.0766 -106.4308 335° Northwest  Level FlightAware Approximate
07:20PM 23.1810 -106.4835 335° Northwest  Level FlightAware Approximate
07:21PM 23.2854 -106.5362 335° Northwest  Level FlightAware Approximate
07:22PM 23.3898 -106.5890 335° Northwest  Level FlightAware Approximate
07:23PM 23.4942 -106.6419 335° Northwest  Level FlightAware Approximate
07:24PM 23.5985 -106.6949 335° Northwest  Level FlightAware Approximate
07:25PM 23.7028 -106.7480 335° Northwest  Level FlightAware Approximate
07:26PM 23.8071 -106.8011 335° Northwest  Level FlightAware Approximate
07:27PM 23.9114 -106.8543 335° Northwest  Level FlightAware Approximate
07:28PM 24.0157 -106.9077 335° Northwest  Level FlightAware Approximate
07:29PM 24.1200 -106.9611 335° Northwest  Level FlightAware Approximate
07:30PM 24.2242 -107.0146 335° Northwest  Level FlightAware Approximate
07:31PM 24.3284 -107.0682 335° Northwest  Level FlightAware Approximate
07:32PM 24.4326 -107.1219 335° Northwest  Level FlightAware Approximate
07:33PM 24.5368 -107.1756 335° Northwest  Level FlightAware Approximate
07:34PM 24.6410 -107.2295 335° Northwest  Level FlightAware Approximate
07:35PM 24.7451 -107.2834 335° Northwest  Level FlightAware Approximate
07:36PM 24.8493 -107.3374 335° Northwest  Level FlightAware Approximate
07:37PM 24.9534 -107.3916 335° Northwest  Level FlightAware Approximate
07:38PM 25.0575 -107.4458 335° Northwest  Level FlightAware Approximate
07:39PM 25.1615 -107.5001 335° Northwest  Level FlightAware Approximate
07:40PM 25.2656 -107.5545 335° Northwest  Level FlightAware Approximate
07:41PM 25.3696 -107.6090 335° Northwest  Level FlightAware Approximate
07:42PM 25.4736 -107.6636 335° Northwest  Level FlightAware Approximate
07:43PM 25.5776 -107.7183 335° Northwest  Level FlightAware Approximate
07:44PM 25.6816 -107.7730 335° Northwest  Level FlightAware Approximate
07:45PM 25.7855 -107.8279 335° Northwest  Level FlightAware Approximate
07:46PM 25.8895 -107.8829 335° Northwest  Level FlightAware Approximate
07:47PM 25.9933 -107.9380 335° Northwest  Level FlightAware Approximate
07:48PM 26.0972 -107.9931 335° Northwest  Level FlightAware Approximate
07:49PM 26.2011 -108.0484 334° Northwest  Level FlightAware Approximate
07:50PM 26.3043 -108.1052 332° Northwest  Level FlightAware Approximate
07:51PM 26.4063 -108.1647 332° Northwest  Level FlightAware Approximate
07:52PM 26.5090 -108.2226 334° Northwest  Level FlightAware Approximate
07:53PM 26.6129 -108.2781 334° Northwest  Level FlightAware Approximate
07:54PM 26.7167 -108.3337 334° Northwest  Level FlightAware Approximate
07:55PM 26.8205 -108.3895 334° Northwest  Level FlightAware Approximate
07:56PM 26.9242 -108.4453 334° Northwest  Level FlightAware Approximate
07:57PM 27.0280 -108.5012 334° Northwest  Level FlightAware Approximate
07:58PM 27.1317 -108.5572 334° Northwest  Level FlightAware Approximate
07:59PM 27.2354 -108.6133 334° Northwest  Level FlightAware Approximate
08:00PM 27.3391 -108.6696 334° Northwest  Level FlightAware Approximate
08:01PM 27.4428 -108.7259 334° Northwest  Level FlightAware Approximate
08:02PM 27.5464 -108.7823 334° Northwest  Level FlightAware Approximate
08:03PM 27.6500 -108.8389 334° Northwest  Level FlightAware Approximate
08:04PM 27.7536 -108.8956 334° Northwest  Level FlightAware Approximate
08:05PM 27.8572 -108.9523 334° Northwest  Level FlightAware Approximate
08:06PM 27.9606 -109.0096 334° Northwest  Level FlightAware Approximate
08:07PM 28.0639 -109.0670 334° Northwest  Level FlightAware Approximate
08:08PM 28.1672 -109.1246 334° Northwest  Level FlightAware Approximate
08:09PM 28.2705 -109.1823 334° Northwest  Level FlightAware Approximate
08:10PM 28.3737 -109.2401 334° Northwest  Level FlightAware Approximate
08:11PM 28.4770 -109.2980 334° Northwest  Level FlightAware Approximate
08:12PM 28.5802 -109.3560 334° Northwest  Level FlightAware Approximate
08:13PM 28.6833 -109.4141 334° Northwest  Level FlightAware Approximate
08:14PM 28.7865 -109.4724 334° Northwest  Level FlightAware Approximate
08:15PM 28.8896 -109.5307 334° Northwest  Level FlightAware Approximate
08:16PM 28.9927 -109.5892 334° Northwest  Level FlightAware Approximate
08:17PM 29.0958 -109.6478 334° Northwest  Level FlightAware Approximate
08:18PM 29.1988 -109.7065 334° Northwest  Level FlightAware Approximate
08:19PM 29.3018 -109.7653 334° Northwest  Level FlightAware Approximate
08:20PM 29.4056 -109.8226 335° Northwest  Level FlightAware Approximate
08:21PM 29.5096 -109.8792 335° Northwest  Level FlightAware Approximate
08:22PM 29.6135 -109.9360 335° Northwest  Level FlightAware Approximate
08:23PM 29.7173 -109.9934 333° Northwest  Level FlightAware Approximate
08:24PM 29.8200 -110.0531 333° Northwest  Level FlightAware Approximate
08:25PM 29.9227 -110.1130 333° Northwest  Level FlightAware Approximate
08:26PM 30.0254 -110.1730 333° Northwest  Level FlightAware Approximate
08:27PM 30.1282 -110.2328 334° Northwest  Level FlightAware Approximate
08:27PM 30.7486 -110.6025 334° Northwest 461 531 32,900  Level Albuquerque Center
08:28PM 30.2313 -110.2920 334° Northwest  Level FlightAware Approximate
08:28PM 30.8725 -110.6769 333° Northwest 454 522 32,300  Level Albuquerque Center
08:29PM 30.3344 -110.3513 334° Northwest  Level FlightAware Approximate
08:29PM 30.9878 -110.7436 334° Northwest 459 528 31,900  Level Albuquerque Center
08:30PM 30.4375 -110.4107 334° Northwest  Level FlightAware Approximate
08:30PM 31.1022 -110.8111 333° Northwest 462 532 32,000  Level Albuquerque Center
08:31PM 30.5405 -110.4703 334° Northwest  Level FlightAware Approximate
08:31PM 31.2158 -110.8800 333° Northwest 461 531 32,000  Level Albuquerque Center
08:32PM 30.6435 -110.5300 334° Northwest  Level FlightAware Approximate
08:32PM 31.3331 -110.9322 339° North 455 524 32,000  Level Albuquerque Center
08:33PM 31.4847 -110.9425 357° North 448 516 32,000  Level Albuquerque Center
08:34PM 31.6114 -110.9358 North 444 511 32,000 -60 Level Albuquerque Center
08:35PM 31.7394 -110.9331 North 444 511 31,900 -720 Descending Albuquerque Center
08:36PM 31.8592 -110.9269 North 447 514 30,600 -2,040 Descending Albuquerque Center
08:37PM 31.9817 -110.9211 North 445 512 27,800 -2,340 Descending Albuquerque Center
08:38PM 32.1003 -110.9172 North 432 497 25,900 -1,620 Descending Albuquerque Center
08:39PM 32.2089 -110.9444 348° North 404 465 24,500 -1,380 Descending Albuquerque Center
08:40PM 32.3142 -110.9728 347° North 392 451 23,100 -1,380 Descending Albuquerque Center
08:41PM 32.4172 -111.0008 347° North 384 442 21,700 -1,560 Descending Albuquerque Center
08:42PM 32.5389 -111.0339 347° North 375 432 20,000 -1,500 Descending Albuquerque Center
08:43PM 32.6386 -111.0619 347° North 370 426 18,700 -1,320 Descending Albuquerque Center
08:44PM 32.7356 -111.0897 346° North 363 418 17,400 -1,320 Descending Albuquerque Center
08:45PM 32.8286 -111.1167 346° North 350 403 16,100 -1,260 Descending Albuquerque Center
08:46PM 32.9008 -111.1825 323° Northwest 346 398 14,900 -1,260 Descending Albuquerque Center
08:47PM 32.9453 -111.2786 299° West 334 384 13,600 -1,200 Descending Albuquerque Center
08:48PM 32.9872 -111.3703 299° West 321 369 12,500 -1,140 Descending Albuquerque Center
08:49PM 33.0300 -111.4569 301° West 308 354 11,400 -900 Descending Albuquerque Center
08:50PM 33.0742 -111.5433 301° West 306 352 10,700 -1,140 Descending Albuquerque Center
08:51PM 33.1433 -111.5914 330° Northwest 255 293 9,100 -1,380 Descending Albuquerque Center
08:52PM 33.2100 -111.5903 North 244 281 8,000 -540 Descending Albuquerque Center
08:53PM 33.2758 -111.5900 360° North 238 274 8,000 -240 Level Albuquerque Center
08:54PM 33.3411 -111.5894 360° North 236 272 7,600 -840 Descending Albuquerque Center
08:55PM 33.3969 -111.6108 342° North 242 278 6,400 -900 Descending Albuquerque Center
08:57PM 33.4322 -111.6742 304° West 233 268 5,800 -600 Descending Albuquerque Center